Time;durP1;ratioP1;P1;durP2;ratioP2;P2;SDS_P1;SDS_P2;PMS_P1;PMS_P2;Temp;Humidity;BMP_temperature;BMP_pressure;BME280_temperature;BME280_humidity;BME280_pressure;Samples;Min_cycle;Max_cycle;Signal;HPM_P1;HPM_P2
2021/11/28 00:30:26;;;;;;;15.98;8.55;;;;;;;;;;4844973;29;20068;-81
2021/11/28 00:33:03;;;;;;;16.30;8.50;;;;;;;;;;4838712;29;20153;-81
2021/11/28 00:35:34;;;;;;;17.20;9.35;;;;;;;;;;4846893;29;20042;-81
2021/11/28 00:38:11;;;;;;;23.73;12.20;;;;;;;;;;4839203;29;20602;-82
2021/11/28 00:40:40;;;;;;;20.88;10.95;;;;;;;;;;4839234;29;20339;-81
2021/11/28 00:43:11;;;;;;;21.90;11.63;;;;;;;;;;4843229;29;20090;-81
2021/11/28 00:45:37;;;;;;;13.55;7.30;;;;;;;;;;4839469;29;20034;-81
2021/11/28 00:48:04;;;;;;;13.40;7.93;;;;;;;;;;4856540;29;20483;-81
2021/11/28 00:50:44;;;;;;;17.25;8.02;;;;;;;;;;4858819;29;20148;-82
2021/11/28 00:53:11;;;;;;;17.00;7.35;;;;;;;;;;4856827;29;20067;-82
2021/11/28 00:55:37;;;;;;;15.52;7.25;;;;;;;;;;4842268;29;20086;-83
2021/11/28 00:58:03;;;;;;;11.80;6.25;;;;;;;;;;4859073;29;20034;-82
2021/11/28 01:00:29;;;;;;;9.35;5.80;;;;;;;;;;4859418;29;20116;-82
2021/11/28 01:02:56;;;;;;;14.50;8.15;;;;;;;;;;4842785;29;20507;-82
2021/11/28 01:05:22;;;;;;;56.05;28.38;;;;;;;;;;4843377;29;20041;-82
2021/11/28 01:07:49;;;;;;;56.45;30.65;;;;;;;;;;4841036;29;20053;-82
2021/11/28 01:10:15;;;;;;;32.90;17.55;;;;;;;;;;4842354;29;20057;-83
2021/11/28 01:12:41;;;;;;;32.60;16.23;;;;;;;;;;4848668;29;20081;-83
2021/11/28 01:15:08;;;;;;;23.23;10.63;;;;;;;;;;4861072;29;20032;-83
2021/11/28 01:17:35;;;;;;;19.17;11.32;;;;;;;;;;4843570;29;20045;-83
2021/11/28 01:20:02;;;;;;;18.55;9.63;;;;;;;;;;4860948;29;20384;-83
2021/11/28 01:22:28;;;;;;;15.40;8.90;;;;;;;;;;4861189;29;20116;-83
2021/11/28 01:24:54;;;;;;;16.20;9.98;;;;;;;;;;4844660;29;20057;-83
2021/11/28 01:27:20;;;;;;;33.22;18.67;;;;;;;;;;4844381;29;20144;-83
2021/11/28 01:29:46;;;;;;;27.13;12.95;;;;;;;;;;4843813;29;20101;-83
2021/11/28 01:32:12;;;;;;;19.30;11.90;;;;;;;;;;4860679;29;20037;-83
2021/11/28 01:34:39;;;;;;;16.45;9.80;;;;;;;;;;4840564;29;20045;-83
2021/11/28 01:37:05;;;;;;;16.13;8.48;;;;;;;;;;4840882;29;20095;-83
2021/11/28 01:39:31;;;;;;;12.40;7.05;;;;;;;;;;4844291;29;20668;-82
2021/11/28 01:41:57;;;;;;;18.63;9.50;;;;;;;;;;4839429;29;20735;-83
2021/11/28 01:44:23;;;;;;;14.32;9.63;;;;;;;;;;4850321;29;20137;-82
2021/11/28 01:46:49;;;;;;;15.80;8.98;;;;;;;;;;4859094;29;20045;-83
2021/11/28 01:49:16;;;;;;;15.05;9.20;;;;;;;;;;4842154;29;20029;-83
2021/11/28 01:51:42;;;;;;;20.63;13.43;;;;;;;;;;4841881;29;20437;-82
2021/11/28 01:54:13;;;;;;;26.88;15.98;;;;;;;;;;4858563;29;20125;-83
2021/11/28 01:56:40;;;;;;;28.25;16.08;;;;;;;;;;4841259;29;20037;-83
2021/11/28 01:59:07;;;;;;;19.85;12.23;;;;;;;;;;4841786;29;20524;-82
2021/11/28 02:01:33;;;;;;;25.95;17.13;;;;;;;;;;4855864;29;20050;-82
2021/11/28 02:04:00;;;;;;;27.63;15.93;;;;;;;;;;4839726;29;20041;-82
2021/11/28 02:06:26;;;;;;;28.40;14.85;;;;;;;;;;4838870;29;20042;-82
2021/11/28 02:08:52;;;;;;;23.88;13.43;;;;;;;;;;4850754;29;20030;-82
2021/11/28 02:11:18;;;;;;;24.58;12.80;;;;;;;;;;4850615;29;20073;-83
2021/11/28 02:13:44;;;;;;;19.25;12.32;;;;;;;;;;4849207;29;20807;-82
2021/11/28 02:16:12;;;;;;;18.13;11.90;;;;;;;;;;4857509;29;20125;-82
2021/11/28 02:18:38;;;;;;;15.35;10.00;;;;;;;;;;4840941;29;20058;-82
2021/11/28 02:21:05;;;;;;;16.88;10.38;;;;;;;;;;4857697;29;20041;-83
2021/11/28 02:23:32;;;;;;;16.27;10.63;;;;;;;;;;4857665;29;20493;-83
2021/11/28 02:25:59;;;;;;;20.00;12.73;;;;;;;;;;4857543;29;20053;-83
2021/11/28 02:28:25;;;;;;;15.70;11.80;;;;;;;;;;4857461;29;20037;-82
2021/11/28 02:30:51;;;;;;;23.48;15.63;;;;;;;;;;4856977;29;20137;-82
2021/11/28 02:33:18;;;;;;;18.40;11.07;;;;;;;;;;4857233;29;20117;-82
2021/11/28 02:35:44;;;;;;;19.05;11.38;;;;;;;;;;4856971;29;20034;-82
2021/11/28 02:38:10;;;;;;;19.02;11.60;;;;;;;;;;4857687;29;20041;-83
2021/11/28 02:40:37;;;;;;;14.88;9.70;;;;;;;;;;4847255;29;20037;-82
2021/11/28 02:43:03;;;;;;;16.10;9.45;;;;;;;;;;4839720;29;20050;-82
2021/11/28 02:45:30;;;;;;;20.38;12.73;;;;;;;;;;4821992;29;20026;-82
2021/11/28 02:47:57;;;;;;;26.52;17.10;;;;;;;;;;4840119;29;20386;-82
2021/11/28 02:50:24;;;;;;;21.05;14.38;;;;;;;;;;4860353;29;20029;-82
2021/11/28 02:52:54;;;;;;;20.40;14.05;;;;;;;;;;4860315;29;20041;-82
2021/11/28 02:55:26;;;;;;;20.55;12.70;;;;;;;;;;4843606;29;20038;-83
2021/11/28 02:57:53;;;;;;;19.97;12.27;;;;;;;;;;4860099;29;20472;-82
2021/11/28 03:00:19;;;;;;;15.90;10.20;;;;;;;;;;4843353;29;20040;-82
2021/11/28 03:02:45;;;;;;;18.80;11.75;;;;;;;;;;4860078;29;20033;-82
2021/11/28 03:05:11;;;;;;;23.60;12.38;;;;;;;;;;4843156;29;20041;-82
2021/11/28 03:07:40;;;;;;;23.15;14.90;;;;;;;;;;4860005;29;20038;-82
2021/11/28 03:10:07;;;;;;;26.73;14.82;;;;;;;;;;4843513;29;20065;-82
2021/11/28 03:12:33;;;;;;;22.77;12.88;;;;;;;;;;4860032;29;20041;-82
2021/11/28 03:14:59;;;;;;;24.75;14.93;;;;;;;;;;4860455;29;20528;-82
2021/11/28 03:17:25;;;;;;;16.45;10.45;;;;;;;;;;4859815;29;20037;-82
2021/11/28 03:19:51;;;;;;;17.00;10.88;;;;;;;;;;4859849;29;20551;-82
2021/11/28 03:22:17;;;;;;;58.30;28.40;;;;;;;;;;4859278;29;20048;-82
2021/11/28 03:24:43;;;;;;;99.03;41.25;;;;;;;;;;4860179;29;20045;-82
2021/11/28 03:27:09;;;;;;;108.93;49.30;;;;;;;;;;4843128;29;20049;-82
2021/11/28 03:29:35;;;;;;;55.88;25.85;;;;;;;;;;4859138;29;20714;-82
2021/11/28 03:32:01;;;;;;;31.27;16.73;;;;;;;;;;4842967;29;20041;-82
2021/11/28 03:34:27;;;;;;;26.17;14.13;;;;;;;;;;4843727;29;20050;-82
2021/11/28 03:36:55;;;;;;;17.98;10.95;;;;;;;;;;4841239;29;20044;-82
2021/11/28 03:39:23;;;;;;;19.40;12.32;;;;;;;;;;4856247;29;20065;-82
2021/11/28 03:41:51;;;;;;;23.33;14.23;;;;;;;;;;4843678;29;20037;-82
2021/11/28 03:44:18;;;;;;;20.88;12.80;;;;;;;;;;4842909;29;20414;-82
2021/11/28 03:46:44;;;;;;;24.02;15.20;;;;;;;;;;4852415;29;20064;-82
2021/11/28 03:49:10;;;;;;;25.30;17.77;;;;;;;;;;4859116;29;20703;-82
2021/11/28 03:51:36;;;;;;;19.23;13.98;;;;;;;;;;4851504;29;20601;-82
2021/11/28 03:54:04;;;;;;;19.42;14.45;;;;;;;;;;4858766;29;20060;-82
2021/11/28 03:56:31;;;;;;;18.92;13.18;;;;;;;;;;4859657;29;20704;-82
2021/11/28 03:58:57;;;;;;;21.40;13.88;;;;;;;;;;4853357;29;20388;-81
2021/11/28 04:01:23;;;;;;;22.13;16.60;;;;;;;;;;4841061;29;20045;-81
2021/11/28 04:03:49;;;;;;;20.38;13.57;;;;;;;;;;4842142;29;20057;-82
2021/11/28 04:06:15;;;;;;;27.50;17.50;;;;;;;;;;4842281;29;20049;-81
2021/11/28 04:08:41;;;;;;;21.73;14.00;;;;;;;;;;4858681;29;20076;-81
2021/11/28 04:11:08;;;;;;;28.70;17.67;;;;;;;;;;4858326;29;20127;-81
2021/11/28 04:13:34;;;;;;;19.33;12.90;;;;;;;;;;4841908;29;20430;-81
2021/11/28 04:16:01;;;;;;;19.73;12.20;;;;;;;;;;4858617;29;20039;-81
2021/11/28 04:18:27;;;;;;;19.30;11.70;;;;;;;;;;4858836;29;20034;-82
2021/11/28 04:20:53;;;;;;;15.43;10.18;;;;;;;;;;4858465;29;20114;-82
2021/11/28 04:23:19;;;;;;;25.83;16.42;;;;;;;;;;4858303;29;20026;-82
2021/11/28 04:25:48;;;;;;;16.58;12.38;;;;;;;;;;4857934;29;20136;-82
2021/11/28 04:28:14;;;;;;;19.95;12.45;;;;;;;;;;4859067;29;20033;-82
2021/11/28 04:30:40;;;;;;;17.38;12.80;;;;;;;;;;4858254;29;20105;-82
2021/11/28 04:33:06;;;;;;;22.48;12.50;;;;;;;;;;4859055;29;20384;-82
2021/11/28 04:35:32;;;;;;;20.33;13.05;;;;;;;;;;4851704;29;20053;-81
2021/11/28 04:37:58;;;;;;;16.35;10.10;;;;;;;;;;4840414;29;20034;-81
2021/11/28 04:40:24;;;;;;;19.15;12.07;;;;;;;;;;4839741;29;20038;-81
2021/11/28 04:42:50;;;;;;;18.40;11.98;;;;;;;;;;4840649;29;20121;-81
2021/11/28 04:45:16;;;;;;;16.80;11.02;;;;;;;;;;4840664;29;20113;-81
2021/11/28 04:47:42;;;;;;;20.25;11.95;;;;;;;;;;4848618;29;20034;-82
2021/11/28 04:50:10;;;;;;;18.95;11.30;;;;;;;;;;4857757;29;20429;-81
2021/11/28 04:52:36;;;;;;;22.73;14.68;;;;;;;;;;4856420;29;20143;-81
2021/11/28 04:55:04;;;;;;;17.58;11.38;;;;;;;;;;4839804;29;20034;-81
2021/11/28 04:57:30;;;;;;;18.13;11.15;;;;;;;;;;4848757;29;20121;-81
2021/11/28 04:59:56;;;;;;;13.00;7.60;;;;;;;;;;4858176;29;20486;-81
2021/11/28 05:02:22;;;;;;;12.18;8.38;;;;;;;;;;4849647;29;20101;-81
2021/11/28 05:04:48;;;;;;;11.82;7.55;;;;;;;;;;4839976;29;20036;-81
2021/11/28 05:07:15;;;;;;;12.27;6.90;;;;;;;;;;4838320;29;20162;-81
2021/11/28 05:09:41;;;;;;;11.73;8.00;;;;;;;;;;4840499;29;20042;-81
2021/11/28 05:12:07;;;;;;;11.05;6.32;;;;;;;;;;4845994;29;20545;-80
2021/11/28 05:14:33;;;;;;;10.35;6.22;;;;;;;;;;4858085;29;20144;-81
2021/11/28 05:16:59;;;;;;;10.18;7.07;;;;;;;;;;4857561;29;20033;-81
2021/11/28 05:19:25;;;;;;;9.15;6.63;;;;;;;;;;4858163;29;20037;-81
2021/11/28 05:21:51;;;;;;;9.02;5.47;;;;;;;;;;4854057;29;20555;-81
2021/11/28 05:24:17;;;;;;;9.98;5.97;;;;;;;;;;4856346;29;20069;-81
2021/11/28 05:26:43;;;;;;;10.63;6.30;;;;;;;;;;4857895;29;20395;-81
2021/11/28 05:29:09;;;;;;;12.10;8.65;;;;;;;;;;4857141;29;20057;-81
2021/11/28 05:31:35;;;;;;;14.38;9.70;;;;;;;;;;4858070;29;20065;-81
2021/11/28 05:34:01;;;;;;;9.05;6.18;;;;;;;;;;4856753;29;20057;-81
2021/11/28 05:36:27;;;;;;;10.32;6.47;;;;;;;;;;4840924;29;20109;-81
2021/11/28 05:38:53;;;;;;;12.32;8.20;;;;;;;;;;4848360;29;20070;-80
2021/11/28 05:41:19;;;;;;;11.77;7.05;;;;;;;;;;4842540;29;20038;-81
2021/11/28 05:43:47;;;;;;;13.30;7.28;;;;;;;;;;4853409;29;20422;-81
2021/11/28 05:46:14;;;;;;;14.23;8.10;;;;;;;;;;4846055;29;20379;-81
2021/11/28 05:48:40;;;;;;;20.05;9.95;;;;;;;;;;4851573;29;20034;-81
2021/11/28 05:51:06;;;;;;;14.82;8.20;;;;;;;;;;4852974;29;20042;-82
2021/11/28 05:53:34;;;;;;;16.13;7.95;;;;;;;;;;4856613;29;20037;-81
2021/11/28 05:56:00;;;;;;;13.80;7.75;;;;;;;;;;4857578;29;20100;-82
2021/11/28 05:58:26;;;;;;;11.57;7.10;;;;;;;;;;4855962;29;20062;-81
2021/11/28 06:00:52;;;;;;;15.23;7.78;;;;;;;;;;4843500;29;20025;-81
2021/11/28 06:03:18;;;;;;;10.90;5.93;;;;;;;;;;4856876;29;20034;-81
2021/11/28 06:05:45;;;;;;;11.10;6.70;;;;;;;;;;4847980;29;20040;-80
2021/11/28 06:08:11;;;;;;;12.15;6.90;;;;;;;;;;4850776;29;20120;-80
2021/11/28 06:10:37;;;;;;;11.98;7.47;;;;;;;;;;4848576;29;20034;-80
2021/11/28 06:13:03;;;;;;;12.05;7.75;;;;;;;;;;4852018;29;20047;-81
2021/11/28 06:15:29;;;;;;;12.40;7.28;;;;;;;;;;4852397;29;20078;-81
2021/11/28 06:17:55;;;;;;;10.25;6.82;;;;;;;;;;4858920;29;20090;-81
2021/11/28 06:20:21;;;;;;;14.07;7.85;;;;;;;;;;4853307;29;20066;-81
2021/11/28 06:22:48;;;;;;;12.13;7.28;;;;;;;;;;4844616;29;20424;-81
2021/11/28 06:25:14;;;;;;;14.02;7.85;;;;;;;;;;4870503;29;20061;-81
2021/11/28 06:27:40;;;;;;;14.27;7.13;;;;;;;;;;4854430;29;20073;-81
2021/11/28 06:30:06;;;;;;;11.18;6.88;;;;;;;;;;4852886;29;20057;-81
2021/11/28 06:32:33;;;;;;;13.50;7.75;;;;;;;;;;4850830;29;20046;-82
2021/11/28 06:34:59;;;;;;;16.15;9.15;;;;;;;;;;4842938;29;20045;-84
2021/11/28 06:37:25;;;;;;;19.63;10.95;;;;;;;;;;4840531;29;20086;-83
2021/11/28 06:39:51;;;;;;;16.00;11.15;;;;;;;;;;4843480;29;20074;-83
2021/11/28 06:42:17;;;;;;;16.70;11.30;;;;;;;;;;4854368;29;20041;-83
2021/11/28 06:44:43;;;;;;;12.73;8.13;;;;;;;;;;4857844;29;20044;-84
2021/11/28 06:47:11;;;;;;;13.15;8.75;;;;;;;;;;4854450;29;20057;-82
2021/11/28 06:49:37;;;;;;;14.38;8.30;;;;;;;;;;4876067;29;20044;-83
2021/11/28 06:52:03;;;;;;;15.10;8.60;;;;;;;;;;4856114;29;20048;-83
2021/11/28 06:54:29;;;;;;;13.10;8.63;;;;;;;;;;4854920;29;20048;-84
2021/11/28 06:56:55;;;;;;;15.80;8.77;;;;;;;;;;4842769;29;20045;-83
2021/11/28 06:59:22;;;;;;;14.30;9.48;;;;;;;;;;4846889;29;20424;-83
2021/11/28 07:01:49;;;;;;;15.80;10.45;;;;;;;;;;4859798;29;20045;-84
2021/11/28 07:04:15;;;;;;;15.80;11.10;;;;;;;;;;4848246;29;20030;-83
2021/11/28 07:06:41;;;;;;;16.00;9.82;;;;;;;;;;4849363;29;20045;-82
2021/11/28 07:09:07;;;;;;;13.50;8.60;;;;;;;;;;4843654;29;20042;-81
2021/11/28 07:11:33;;;;;;;17.23;11.20;;;;;;;;;;4843309;29;20038;-82
2021/11/28 07:13:59;;;;;;;25.23;15.90;;;;;;;;;;4849796;29;20061;-81
2021/11/28 07:16:25;;;;;;;24.15;16.00;;;;;;;;;;4861995;29;20038;-82
2021/11/28 07:18:51;;;;;;;18.30;14.23;;;;;;;;;;4856448;29;20030;-83
2021/11/28 07:21:18;;;;;;;21.45;14.80;;;;;;;;;;4852022;29;20038;-83
2021/11/28 07:23:49;;;;;;;19.42;12.65;;;;;;;;;;4856503;29;20109;-82
2021/11/28 07:26:15;;;;;;;21.20;14.75;;;;;;;;;;4838180;29;20041;-82
2021/11/28 07:28:42;;;;;;;19.38;13.20;;;;;;;;;;4856101;29;20085;-83
2021/11/28 07:31:08;;;;;;;21.60;14.77;;;;;;;;;;4853253;29;20563;-81
2021/11/28 07:33:37;;;;;;;22.63;17.48;;;;;;;;;;4857246;29;20029;-82
2021/11/28 07:36:06;;;;;;;21.40;16.65;;;;;;;;;;4845371;29;20477;-82
2021/11/28 07:38:33;;;;;;;21.35;15.00;;;;;;;;;;4839553;29;20042;-82
2021/11/28 07:40:59;;;;;;;21.73;15.18;;;;;;;;;;4844490;29;20029;-81
2021/11/28 07:43:25;;;;;;;25.90;16.77;;;;;;;;;;4845947;29;20080;-82
2021/11/28 07:45:51;;;;;;;19.23;13.02;;;;;;;;;;4848172;29;20112;-81
2021/11/28 07:48:17;;;;;;;25.63;18.55;;;;;;;;;;4852071;29;20086;-82
2021/11/28 07:50:44;;;;;;;26.50;17.45;;;;;;;;;;4841834;29;20053;-81
2021/11/28 07:53:10;;;;;;;24.98;16.92;;;;;;;;;;4850843;29;20777;-81
2021/11/28 07:55:36;;;;;;;16.90;11.60;;;;;;;;;;4855749;29;20033;-81
2021/11/28 07:58:03;;;;;;;17.58;11.13;;;;;;;;;;4857198;29;20618;-81
2021/11/28 08:00:29;;;;;;;18.73;12.90;;;;;;;;;;4847094;29;20040;-81
2021/11/28 08:02:55;;;;;;;22.65;15.88;;;;;;;;;;4859215;29;20479;-81
2021/11/28 08:05:21;;;;;;;20.67;14.57;;;;;;;;;;4857836;29;20034;-81
2021/11/28 08:07:47;;;;;;;20.50;14.60;;;;;;;;;;4858794;29;20051;-82
2021/11/28 08:10:14;;;;;;;24.60;14.00;;;;;;;;;;4846500;29;20034;-81
2021/11/28 08:12:40;;;;;;;25.95;16.02;;;;;;;;;;4847471;29;20120;-81
2021/11/28 08:15:08;;;;;;;23.27;16.23;;;;;;;;;;4848691;29;20048;-81
2021/11/28 08:17:38;;;;;;;23.08;15.77;;;;;;;;;;4855993;29;20033;-81
2021/11/28 08:20:05;;;;;;;22.10;15.90;;;;;;;;;;4856282;29;20704;-81
2021/11/28 08:22:31;;;;;;;18.63;14.10;;;;;;;;;;4850847;29;20737;-81
2021/11/28 08:24:57;;;;;;;24.30;15.63;;;;;;;;;;4849326;29;20041;-82
2021/11/28 08:27:23;;;;;;;22.40;15.95;;;;;;;;;;4837863;29;20049;-80
2021/11/28 08:29:49;;;;;;;18.90;14.07;;;;;;;;;;4852454;29;20054;-81
2021/11/28 08:32:15;;;;;;;22.00;14.60;;;;;;;;;;4851028;29;20120;-81
2021/11/28 08:34:43;;;;;;;20.55;15.57;;;;;;;;;;4833309;29;20433;-80
2021/11/28 08:37:09;;;;;;;24.60;16.40;;;;;;;;;;4852988;29;20104;-81
2021/11/28 08:39:35;;;;;;;23.15;16.58;;;;;;;;;;4849075;29;20061;-82
2021/11/28 08:42:03;;;;;;;23.27;16.40;;;;;;;;;;4855583;29;20042;-81
2021/11/28 08:44:30;;;;;;;20.85;14.75;;;;;;;;;;4853012;29;20067;-81
2021/11/28 08:46:56;;;;;;;26.30;17.45;;;;;;;;;;4854658;29;20477;-82
2021/11/28 08:49:22;;;;;;;25.42;18.00;;;;;;;;;;4857585;29;20104;-82
2021/11/28 08:51:48;;;;;;;26.58;18.95;;;;;;;;;;4858862;29;20080;-81
2021/11/28 08:54:14;;;;;;;27.95;20.55;;;;;;;;;;4857441;29;20033;-81
2021/11/28 08:56:42;;;;;;;24.67;17.55;;;;;;;;;;4858879;29;20120;-82
2021/11/28 08:59:08;;;;;;;24.38;17.83;;;;;;;;;;4855797;29;20041;-80
2021/11/28 09:01:36;;;;;;;23.75;16.88;;;;;;;;;;4856673;29;20045;-81
2021/11/28 09:04:02;;;;;;;29.13;17.20;;;;;;;;;;4850142;29;20021;-82
2021/11/28 09:06:28;;;;;;;22.48;15.70;;;;;;;;;;4848861;29;20049;-82
2021/11/28 09:08:54;;;;;;;14.40;10.20;;;;;;;;;;4851397;29;20444;-83
2021/11/28 09:11:20;;;;;;;19.27;13.50;;;;;;;;;;4855210;29;20053;-82
2021/11/28 09:13:46;;;;;;;18.67;13.10;;;;;;;;;;4839421;29;20362;-82
2021/11/28 09:16:12;;;;;;;16.98;12.70;;;;;;;;;;4841693;29;20349;-82
2021/11/28 09:21:07;;;;;;;16.75;12.48;;;;;;;;;;4857520;29;20140;-82
2021/11/28 09:26:18;;;;;;;15.07;9.13;;;;;;;;;;4855172;29;20094;-83
2021/11/28 09:28:45;;;;;;;14.57;10.80;;;;;;;;;;4840684;29;20040;-81
2021/11/28 09:31:11;;;;;;;12.55;8.25;;;;;;;;;;4840354;29;20042;-82
2021/11/28 09:33:38;;;;;;;14.23;9.40;;;;;;;;;;4836497;29;20036;-83
2021/11/28 09:36:04;;;;;;;11.95;9.57;;;;;;;;;;4852416;29;20053;-82
2021/11/28 09:38:31;;;;;;;16.45;9.48;;;;;;;;;;4857661;29;20037;-83
2021/11/28 09:40:58;;;;;;;13.10;9.48;;;;;;;;;;4858225;29;20710;-84
2021/11/28 09:43:25;;;;;;;14.15;10.00;;;;;;;;;;4841052;29;20033;-83
2021/11/28 09:45:53;;;;;;;39.45;22.45;;;;;;;;;;4847918;29;20660;-83
2021/11/28 09:48:23;;;;;;;27.50;18.65;;;;;;;;;;4839884;29;20038;-83
2021/11/28 09:50:50;;;;;;;23.88;17.35;;;;;;;;;;4857158;29;20065;-83
2021/11/28 09:53:16;;;;;;;19.17;13.55;;;;;;;;;;4857222;29;20127;-82
2021/11/28 09:55:43;;;;;;;21.77;17.35;;;;;;;;;;4856571;29;20044;-83
2021/11/28 09:58:09;;;;;;;20.42;15.32;;;;;;;;;;4842697;29;20484;-83
2021/11/28 10:00:35;;;;;;;22.58;15.18;;;;;;;;;;4861396;29;20065;-82
2021/11/28 10:03:01;;;;;;;27.15;18.02;;;;;;;;;;4861586;29;20468;-81
2021/11/28 10:05:27;;;;;;;21.83;14.50;;;;;;;;;;4843846;29;20523;-82
2021/11/28 10:07:53;;;;;;;18.35;12.55;;;;;;;;;;4854739;29;20502;-82
2021/11/28 10:10:21;;;;;;;13.57;9.73;;;;;;;;;;4858431;29;20038;-84
2021/11/28 10:12:50;;;;;;;12.02;8.35;;;;;;;;;;4857694;29;20074;-82
2021/11/28 10:15:19;;;;;;;14.18;10.82;;;;;;;;;;4849647;29;20038;-83
2021/11/28 10:17:45;;;;;;;11.70;8.65;;;;;;;;;;4844256;29;20052;-83
2021/11/28 10:20:14;;;;;;;11.98;7.93;;;;;;;;;;4843904;29;20480;-82
2021/11/28 10:22:41;;;;;;;9.80;6.80;;;;;;;;;;4843878;29;20037;-83
2021/11/28 10:25:15;;;;;;;10.55;6.38;;;;;;;;;;4847186;29;20056;-81
2021/11/28 10:27:52;;;;;;;18.25;9.30;;;;;;;;;;4841958;29;20404;-81
2021/11/28 10:30:31;;;;;;;10.35;7.38;;;;;;;;;;4846549;29;20092;-80
2021/11/28 10:33:05;;;;;;;9.35;5.82;;;;;;;;;;4856587;29;20050;-84
2021/11/28 10:35:31;;;;;;;8.80;5.88;;;;;;;;;;4843510;29;20506;-82
2021/11/28 10:37:57;;;;;;;9.93;5.88;;;;;;;;;;4858200;29;20033;-81
2021/11/28 10:40:25;;;;;;;9.13;6.10;;;;;;;;;;4857031;29;20516;-81
2021/11/28 10:43:06;;;;;;;10.73;6.38;;;;;;;;;;4860647;29;20056;-83
2021/11/28 10:45:36;;;;;;;10.73;8.35;;;;;;;;;;4860391;29;20132;-82
2021/11/28 10:48:05;;;;;;;12.15;8.27;;;;;;;;;;4836889;29;20049;-81
2021/11/28 10:50:35;;;;;;;12.13;7.60;;;;;;;;;;4853859;29;20029;-81
2021/11/28 10:53:10;;;;;;;13.10;9.98;;;;;;;;;;4860907;29;20056;-81
2021/11/28 10:55:44;;;;;;;13.65;9.60;;;;;;;;;;4859576;29;20033;-80
2021/11/28 10:58:11;;;;;;;13.13;9.73;;;;;;;;;;4849541;29;20038;-81
2021/11/28 11:00:40;;;;;;;12.82;9.98;;;;;;;;;;4854343;29;20542;-81
2021/11/28 11:03:20;;;;;;;15.52;11.98;;;;;;;;;;4856408;29;20061;-82
2021/11/28 11:05:47;;;;;;;12.35;9.20;;;;;;;;;;4845899;29;20041;-82
2021/11/28 11:08:16;;;;;;;16.02;11.27;;;;;;;;;;4854757;29;20037;-80
2021/11/28 11:10:43;;;;;;;13.13;9.38;;;;;;;;;;4857850;29;20464;-81
2021/11/28 11:13:18;;;;;;;13.70;10.38;;;;;;;;;;4854537;29;20121;-82
2021/11/28 11:15:46;;;;;;;12.05;9.90;;;;;;;;;;4852687;29;20533;-81
2021/11/28 11:18:17;;;;;;;11.10;8.70;;;;;;;;;;4860419;29;20456;-82
2021/11/28 11:20:48;;;;;;;12.38;10.48;;;;;;;;;;4859811;29;20036;-81
2021/11/28 11:23:32;;;;;;;15.45;11.23;;;;;;;;;;4859340;29;20045;-80
2021/11/28 11:26:16;;;;;;;15.90;13.02;;;;;;;;;;4856844;29;20036;-80
2021/11/28 11:29:02;;;;;;;12.52;10.27;;;;;;;;;;4855778;29;20840;-80
2021/11/28 11:31:29;;;;;;;34.63;20.25;;;;;;;;;;4858678;29;20041;-79
2021/11/28 11:33:55;;;;;;;34.55;18.80;;;;;;;;;;4848855;29;20069;-80
2021/11/28 11:36:22;;;;;;;22.73;12.45;;;;;;;;;;4842697;29;20610;-81
2021/11/28 11:38:49;;;;;;;11.60;7.05;;;;;;;;;;4855510;29;20037;-80
2021/11/28 11:41:15;;;;;;;13.93;9.30;;;;;;;;;;4841369;29;20527;-80
2021/11/28 11:43:41;;;;;;;10.65;7.00;;;;;;;;;;4844692;29;20094;-80
2021/11/28 11:46:09;;;;;;;10.30;6.70;;;;;;;;;;4853572;29;20136;-80
2021/11/28 11:48:35;;;;;;;13.70;8.40;;;;;;;;;;4857638;29;20075;-80
2021/11/28 11:51:02;;;;;;;52.70;27.00;;;;;;;;;;4859215;29;20484;-80
2021/11/28 11:53:28;;;;;;;57.10;28.58;;;;;;;;;;4858953;29;20813;-81
2021/11/28 11:55:54;;;;;;;38.85;22.67;;;;;;;;;;4858724;29;20890;-81
2021/11/28 11:58:30;;;;;;;19.20;11.98;;;;;;;;;;4842237;29;20041;-82
2021/11/28 12:01:15;;;;;;;15.88;11.93;;;;;;;;;;4857461;29;20069;-81
2021/11/28 12:03:50;;;;;;;19.48;13.27;;;;;;;;;;4860860;29;20037;-83
2021/11/28 12:06:16;;;;;;;15.73;11.38;;;;;;;;;;4840604;29;20042;-82
2021/11/28 12:08:52;;;;;;;12.63;9.27;;;;;;;;;;4841541;29;20041;-80
2021/11/28 12:11:22;;;;;;;15.23;11.02;;;;;;;;;;4857428;29;20093;-81
2021/11/28 12:13:56;;;;;;;15.23;10.55;;;;;;;;;;4857957;29;20046;-84
2021/11/28 12:16:23;;;;;;;12.75;9.40;;;;;;;;;;4842235;29;20038;-83
2021/11/28 12:18:53;;;;;;;15.68;9.57;;;;;;;;;;4854345;29;20030;-84
2021/11/28 12:21:38;;;;;;;18.83;10.38;;;;;;;;;;4857445;29;20082;-84
2021/11/28 12:24:11;;;;;;;16.30;10.77;;;;;;;;;;4839245;29;20037;-84
2021/11/28 12:26:41;;;;;;;17.80;11.63;;;;;;;;;;4852501;29;20105;-82
2021/11/28 12:29:11;;;;;;;20.20;12.88;;;;;;;;;;4838467;29;20061;-83
2021/11/28 12:31:41;;;;;;;26.50;15.40;;;;;;;;;;4839244;29;20042;-83
2021/11/28 12:34:09;;;;;;;23.88;12.73;;;;;;;;;;4851610;29;20045;-83
2021/11/28 12:36:41;;;;;;;39.28;27.30;;;;;;;;;;4842096;29;20045;-82
2021/11/28 12:39:07;;;;;;;27.42;18.30;;;;;;;;;;4852061;29;20046;-81
2021/11/28 12:41:46;;;;;;;28.10;14.50;;;;;;;;;;4854909;29;20037;-82
2021/11/28 12:44:13;;;;;;;24.40;11.90;;;;;;;;;;4857755;29;20037;-81
2021/11/28 12:46:40;;;;;;;27.15;14.30;;;;;;;;;;4858284;29;20445;-81
2021/11/28 12:49:24;;;;;;;18.73;10.07;;;;;;;;;;4857799;29;20041;-80
2021/11/28 12:51:51;;;;;;;22.80;13.00;;;;;;;;;;4858492;29;20046;-80
2021/11/28 12:54:30;;;;;;;19.90;11.35;;;;;;;;;;4857378;29;20045;-80
2021/11/28 12:57:14;;;;;;;30.23;16.08;;;;;;;;;;4858443;29;20110;-80
2021/11/28 12:59:40;;;;;;;29.50;17.23;;;;;;;;;;4857659;29;20845;-80
2021/11/28 13:02:06;;;;;;;47.60;27.13;;;;;;;;;;4858152;29;20169;-80
2021/11/28 13:04:41;;;;;;;53.65;29.63;;;;;;;;;;4856983;29;20535;-80
2021/11/28 13:07:26;;;;;;;30.42;18.52;;;;;;;;;;4857180;29;20042;-81
2021/11/28 13:09:56;;;;;;;20.90;13.68;;;;;;;;;;4846968;29;20053;-80
2021/11/28 13:12:26;;;;;;;23.92;13.40;;;;;;;;;;4857554;29;20069;-81
2021/11/28 13:14:53;;;;;;;21.45;11.65;;;;;;;;;;4859801;29;20053;-82
2021/11/28 13:17:23;;;;;;;29.30;15.50;;;;;;;;;;4876538;29;20068;-82
2021/11/28 13:19:49;;;;;;;35.95;20.45;;;;;;;;;;4857851;29;20137;-82
2021/11/28 13:22:18;;;;;;;32.22;17.48;;;;;;;;;;4857958;29;20041;-82
2021/11/28 13:24:45;;;;;;;15.70;9.10;;;;;;;;;;4857668;29;20057;-81
2021/11/28 13:27:11;;;;;;;25.05;13.80;;;;;;;;;;4840711;29;20049;-82
2021/11/28 13:29:51;;;;;;;21.83;13.43;;;;;;;;;;4857217;29;20087;-83
2021/11/28 13:32:17;;;;;;;17.13;10.13;;;;;;;;;;4840406;29;20037;-81
2021/11/28 13:34:43;;;;;;;17.33;8.27;;;;;;;;;;4856741;29;20555;-83
2021/11/28 13:37:17;;;;;;;11.13;7.07;;;;;;;;;;4855906;29;20078;-83
2021/11/28 13:39:43;;;;;;;9.93;4.65;;;;;;;;;;4840813;29;20357;-83
2021/11/28 13:42:09;;;;;;;6.18;3.05;;;;;;;;;;4840741;29;20052;-83
2021/11/28 13:44:35;;;;;;;6.07;3.05;;;;;;;;;;4857429;29;20062;-83
2021/11/28 13:47:02;;;;;;;15.95;12.60;;;;;;;;;;4856443;29;20053;-82
2021/11/28 13:49:30;;;;;;;13.27;9.05;;;;;;;;;;4855822;29;20037;-82
2021/11/28 13:52:09;;;;;;;11.93;6.30;;;;;;;;;;4839079;29;20042;-81
2021/11/28 13:54:39;;;;;;;11.05;5.78;;;;;;;;;;4852507;29;20034;-82
2021/11/28 13:57:14;;;;;;;9.80;5.15;;;;;;;;;;4838973;29;20077;-82
2021/11/28 13:59:42;;;;;;;9.65;5.18;;;;;;;;;;4856264;29;20029;-81
2021/11/28 14:02:10;;;;;;;17.52;10.05;;;;;;;;;;4856696;29;20594;-81
2021/11/28 14:04:37;;;;;;;12.75;8.10;;;;;;;;;;4856276;29;20442;-82
2021/11/28 14:07:04;;;;;;;14.90;10.73;;;;;;;;;;4840859;29;20124;-82
2021/11/28 14:09:30;;;;;;;12.18;8.20;;;;;;;;;;4838731;29;20695;-82
2021/11/28 14:11:56;;;;;;;13.73;9.10;;;;;;;;;;4852570;29;20052;-81
2021/11/28 14:14:24;;;;;;;9.82;6.53;;;;;;;;;;4856762;29;20033;-82
2021/11/28 14:16:52;;;;;;;12.32;7.75;;;;;;;;;;4856833;29;20543;-82
2021/11/28 14:19:30;;;;;;;12.18;7.80;;;;;;;;;;4840676;29;20029;-82
2021/11/28 14:21:56;;;;;;;14.30;8.30;;;;;;;;;;4838655;29;20061;-82
2021/11/28 14:24:30;;;;;;;10.95;7.63;;;;;;;;;;4837463;29;20489;-81
2021/11/28 14:27:11;;;;;;;11.02;7.60;;;;;;;;;;4848159;29;20170;-82
2021/11/28 14:29:37;;;;;;;11.15;7.10;;;;;;;;;;4840554;29;20076;-82
2021/11/28 14:32:03;;;;;;;11.05;7.93;;;;;;;;;;4830651;29;20046;-81
2021/11/28 14:34:29;;;;;;;18.48;11.77;;;;;;;;;;4844674;29;20037;-82
2021/11/28 14:36:55;;;;;;;32.85;22.77;;;;;;;;;;4852031;29;20045;-82
2021/11/28 14:39:39;;;;;;;56.92;38.03;;;;;;;;;;4838507;29;20065;-81
2021/11/28 14:42:18;;;;;;;29.33;19.80;;;;;;;;;;4849989;29;20147;-81
2021/11/28 14:44:49;;;;;;;32.97;18.83;;;;;;;;;;4859864;29;20037;-81
2021/11/28 14:47:24;;;;;;;32.80;16.90;;;;;;;;;;4840069;29;20045;-82
2021/11/28 14:49:51;;;;;;;34.67;20.52;;;;;;;;;;4842042;29;20051;-81
2021/11/28 14:52:26;;;;;;;43.55;25.83;;;;;;;;;;4852341;29;20072;-81
2021/11/28 14:54:53;;;;;;;34.28;18.20;;;;;;;;;;4860288;29;20117;-81
2021/11/28 14:57:21;;;;;;;41.40;22.02;;;;;;;;;;4850760;29;20046;-82
2021/11/28 14:59:52;;;;;;;25.73;15.55;;;;;;;;;;4853161;29;20101;-81
2021/11/28 15:02:19;;;;;;;27.88;18.85;;;;;;;;;;4859899;29;20562;-81